sensor_id;sensor_type;location;lat;lon;timestamp;P1;durP1;ratioP1;P2;durP2;ratioP2
14817;SDS011;7500;57.698;11.986;2022-09-24T00:01:07;3.03;;;2.33;;
14817;SDS011;7500;57.698;11.986;2022-09-24T00:03:36;3.60;;;2.40;;
14817;SDS011;7500;57.698;11.986;2022-09-24T00:06:04;3.13;;;2.30;;
14817;SDS011;7500;57.698;11.986;2022-09-24T00:08:31;4.57;;;2.30;;
14817;SDS011;7500;57.698;11.986;2022-09-24T00:11:00;4.67;;;2.57;;
14817;SDS011;7500;57.698;11.986;2022-09-24T00:13:27;3.27;;;2.50;;
14817;SDS011;7500;57.698;11.986;2022-09-24T00:15:55;7.53;;;2.53;;
14817;SDS011;7500;57.698;11.986;2022-09-24T00:18:22;4.87;;;2.33;;
14817;SDS011;7500;57.698;11.986;2022-09-24T00:20:50;3.27;;;2.23;;
14817;SDS011;7500;57.698;11.986;2022-09-24T00:23:17;4.63;;;2.60;;
14817;SDS011;7500;57.698;11.986;2022-09-24T00:25:44;4.60;;;2.47;;
14817;SDS011;7500;57.698;11.986;2022-09-24T00:28:30;5.53;;;2.80;;
14817;SDS011;7500;57.698;11.986;2022-09-24T00:30:57;4.47;;;2.73;;
14817;SDS011;7500;57.698;11.986;2022-09-24T00:33:25;5.30;;;2.57;;
14817;SDS011;7500;57.698;11.986;2022-09-24T00:35:58;4.73;;;2.67;;
14817;SDS011;7500;57.698;11.986;2022-09-24T00:38:26;4.23;;;2.50;;
14817;SDS011;7500;57.698;11.986;2022-09-24T00:40:53;5.63;;;2.60;;
14817;SDS011;7500;57.698;11.986;2022-09-24T00:43:21;3.30;;;2.80;;
14817;SDS011;7500;57.698;11.986;2022-09-24T00:45:49;4.43;;;2.93;;
14817;SDS011;7500;57.698;11.986;2022-09-24T00:48:17;5.20;;;2.80;;
14817;SDS011;7500;57.698;11.986;2022-09-24T00:50:44;5.03;;;2.47;;
14817;SDS011;7500;57.698;11.986;2022-09-24T00:53:15;7.17;;;3.03;;
14817;SDS011;7500;57.698;11.986;2022-09-24T00:55:46;3.80;;;2.87;;
14817;SDS011;7500;57.698;11.986;2022-09-24T00:58:18;6.57;;;2.77;;
14817;SDS011;7500;57.698;11.986;2022-09-24T01:00:47;4.23;;;3.00;;
14817;SDS011;7500;57.698;11.986;2022-09-24T01:03:18;6.00;;;2.90;;
14817;SDS011;7500;57.698;11.986;2022-09-24T01:05:47;4.97;;;2.83;;
14817;SDS011;7500;57.698;11.986;2022-09-24T01:08:17;3.87;;;2.90;;
14817;SDS011;7500;57.698;11.986;2022-09-24T01:10:58;4.50;;;2.93;;
14817;SDS011;7500;57.698;11.986;2022-09-24T01:13:51;5.37;;;2.83;;
14817;SDS011;7500;57.698;11.986;2022-09-24T01:16:32;4.13;;;2.90;;
14817;SDS011;7500;57.698;11.986;2022-09-24T01:19:24;4.03;;;3.00;;
14817;SDS011;7500;57.698;11.986;2022-09-24T01:22:05;4.67;;;2.50;;
14817;SDS011;7500;57.698;11.986;2022-09-24T01:24:53;6.20;;;2.93;;
14817;SDS011;7500;57.698;11.986;2022-09-24T01:27:28;5.23;;;2.77;;
14817;SDS011;7500;57.698;11.986;2022-09-24T01:30:10;3.73;;;2.83;;
14817;SDS011;7500;57.698;11.986;2022-09-24T01:32:40;4.97;;;3.10;;
14817;SDS011;7500;57.698;11.986;2022-09-24T01:35:11;5.27;;;2.97;;
14817;SDS011;7500;57.698;11.986;2022-09-24T01:37:44;4.07;;;2.83;;
14817;SDS011;7500;57.698;11.986;2022-09-24T01:40:16;5.77;;;2.77;;
14817;SDS011;7500;57.698;11.986;2022-09-24T01:42:45;3.33;;;2.70;;
14817;SDS011;7500;57.698;11.986;2022-09-24T01:45:15;3.23;;;2.80;;
14817;SDS011;7500;57.698;11.986;2022-09-24T01:47:43;6.03;;;3.37;;
14817;SDS011;7500;57.698;11.986;2022-09-24T01:50:10;4.73;;;2.70;;
14817;SDS011;7500;57.698;11.986;2022-09-24T01:52:40;2.93;;;2.60;;
14817;SDS011;7500;57.698;11.986;2022-09-24T01:55:12;3.67;;;3.20;;
14817;SDS011;7500;57.698;11.986;2022-09-24T01:57:44;3.00;;;2.70;;
14817;SDS011;7500;57.698;11.986;2022-09-24T02:00:15;3.90;;;3.00;;
14817;SDS011;7500;57.698;11.986;2022-09-24T02:02:44;3.17;;;2.87;;
14817;SDS011;7500;57.698;11.986;2022-09-24T02:05:17;3.70;;;2.90;;
14817;SDS011;7500;57.698;11.986;2022-09-24T02:07:50;3.73;;;2.63;;
14817;SDS011;7500;57.698;11.986;2022-09-24T02:10:21;4.23;;;2.57;;
14817;SDS011;7500;57.698;11.986;2022-09-24T02:12:49;3.97;;;2.70;;
14817;SDS011;7500;57.698;11.986;2022-09-24T02:15:23;3.40;;;2.50;;
14817;SDS011;7500;57.698;11.986;2022-09-24T02:17:54;7.10;;;2.90;;
14817;SDS011;7500;57.698;11.986;2022-09-24T02:20:23;3.87;;;2.87;;
14817;SDS011;7500;57.698;11.986;2022-09-24T02:22:53;3.03;;;2.57;;
14817;SDS011;7500;57.698;11.986;2022-09-24T02:25:22;4.47;;;2.73;;
14817;SDS011;7500;57.698;11.986;2022-09-24T02:27:53;4.17;;;2.50;;
14817;SDS011;7500;57.698;11.986;2022-09-24T02:30:22;5.47;;;2.80;;
14817;SDS011;7500;57.698;11.986;2022-09-24T02:32:49;5.67;;;2.93;;
14817;SDS011;7500;57.698;11.986;2022-09-24T02:35:19;4.83;;;2.70;;
14817;SDS011;7500;57.698;11.986;2022-09-24T02:37:45;3.03;;;2.60;;
14817;SDS011;7500;57.698;11.986;2022-09-24T02:40:13;3.57;;;2.67;;
14817;SDS011;7500;57.698;11.986;2022-09-24T02:42:40;4.27;;;2.80;;
14817;SDS011;7500;57.698;11.986;2022-09-24T02:45:08;3.73;;;2.80;;
14817;SDS011;7500;57.698;11.986;2022-09-24T02:47:37;4.57;;;2.73;;
14817;SDS011;7500;57.698;11.986;2022-09-24T02:50:04;5.40;;;2.60;;
14817;SDS011;7500;57.698;11.986;2022-09-24T02:52:32;2.93;;;2.70;;
14817;SDS011;7500;57.698;11.986;2022-09-24T02:54:59;3.70;;;2.60;;
14817;SDS011;7500;57.698;11.986;2022-09-24T02:57:26;4.40;;;2.83;;
14817;SDS011;7500;57.698;11.986;2022-09-24T02:59:52;4.00;;;2.80;;
14817;SDS011;7500;57.698;11.986;2022-09-24T03:02:19;3.40;;;2.77;;
14817;SDS011;7500;57.698;11.986;2022-09-24T03:04:47;3.20;;;2.63;;
14817;SDS011;7500;57.698;11.986;2022-09-24T03:07:16;5.03;;;2.60;;
14817;SDS011;7500;57.698;11.986;2022-09-24T03:09:42;6.60;;;2.90;;
14817;SDS011;7500;57.698;11.986;2022-09-24T03:12:09;5.67;;;3.20;;
14817;SDS011;7500;57.698;11.986;2022-09-24T03:14:37;3.23;;;2.60;;
14817;SDS011;7500;57.698;11.986;2022-09-24T03:17:03;3.63;;;2.87;;
14817;SDS011;7500;57.698;11.986;2022-09-24T03:19:30;3.50;;;2.40;;
14817;SDS011;7500;57.698;11.986;2022-09-24T03:21:58;5.43;;;3.10;;
14817;SDS011;7500;57.698;11.986;2022-09-24T03:24:25;3.60;;;2.60;;
14817;SDS011;7500;57.698;11.986;2022-09-24T03:26:52;5.97;;;2.77;;
14817;SDS011;7500;57.698;11.986;2022-09-24T03:29:19;2.97;;;2.77;;
14817;SDS011;7500;57.698;11.986;2022-09-24T03:32:06;4.77;;;2.70;;
14817;SDS011;7500;57.698;11.986;2022-09-24T03:34:32;5.07;;;2.90;;
14817;SDS011;7500;57.698;11.986;2022-09-24T03:37:01;3.83;;;2.90;;
14817;SDS011;7500;57.698;11.986;2022-09-24T03:39:27;4.23;;;2.90;;
14817;SDS011;7500;57.698;11.986;2022-09-24T03:41:54;3.90;;;2.70;;
14817;SDS011;7500;57.698;11.986;2022-09-24T03:44:21;5.00;;;2.60;;
14817;SDS011;7500;57.698;11.986;2022-09-24T03:46:48;3.10;;;2.40;;
14817;SDS011;7500;57.698;11.986;2022-09-24T03:49:15;3.47;;;2.73;;
14817;SDS011;7500;57.698;11.986;2022-09-24T03:51:42;3.67;;;2.50;;
14817;SDS011;7500;57.698;11.986;2022-09-24T03:54:10;3.70;;;2.30;;
14817;SDS011;7500;57.698;11.986;2022-09-24T03:56:37;4.13;;;2.30;;
14817;SDS011;7500;57.698;11.986;2022-09-24T03:59:04;4.13;;;2.70;;
14817;SDS011;7500;57.698;11.986;2022-09-24T04:01:31;4.67;;;2.50;;
14817;SDS011;7500;57.698;11.986;2022-09-24T04:04:01;6.03;;;2.63;;
14817;SDS011;7500;57.698;11.986;2022-09-24T04:06:28;4.87;;;3.30;;
14817;SDS011;7500;57.698;11.986;2022-09-24T04:08:55;5.90;;;3.37;;
14817;SDS011;7500;57.698;11.986;2022-09-24T04:11:23;3.33;;;2.30;;
14817;SDS011;7500;57.698;11.986;2022-09-24T04:13:50;5.33;;;2.43;;
14817;SDS011;7500;57.698;11.986;2022-09-24T04:16:17;2.50;;;2.30;;
14817;SDS011;7500;57.698;11.986;2022-09-24T04:18:44;2.50;;;2.17;;
14817;SDS011;7500;57.698;11.986;2022-09-24T04:21:12;5.80;;;2.60;;
14817;SDS011;7500;57.698;11.986;2022-09-24T04:23:39;4.33;;;2.30;;
14817;SDS011;7500;57.698;11.986;2022-09-24T04:26:06;4.33;;;2.20;;
14817;SDS011;7500;57.698;11.986;2022-09-24T04:28:35;2.57;;;2.30;;
14817;SDS011;7500;57.698;11.986;2022-09-24T04:31:01;2.57;;;2.00;;
14817;SDS011;7500;57.698;11.986;2022-09-24T04:33:30;3.80;;;2.20;;
14817;SDS011;7500;57.698;11.986;2022-09-24T04:35:56;4.47;;;2.20;;
14817;SDS011;7500;57.698;11.986;2022-09-24T04:38:23;5.40;;;2.53;;
14817;SDS011;7500;57.698;11.986;2022-09-24T04:40:50;2.40;;;2.20;;
14817;SDS011;7500;57.698;11.986;2022-09-24T04:43:17;3.00;;;2.13;;
14817;SDS011;7500;57.698;11.986;2022-09-24T04:45:46;4.90;;;2.40;;
14817;SDS011;7500;57.698;11.986;2022-09-24T04:48:12;2.67;;;2.30;;
14817;SDS011;7500;57.698;11.986;2022-09-24T04:50:39;3.83;;;2.53;;
14817;SDS011;7500;57.698;11.986;2022-09-24T04:53:06;3.30;;;2.37;;
14817;SDS011;7500;57.698;11.986;2022-09-24T04:55:33;4.70;;;2.30;;
14817;SDS011;7500;57.698;11.986;2022-09-24T04:58:01;4.23;;;2.70;;
14817;SDS011;7500;57.698;11.986;2022-09-24T05:00:28;4.43;;;2.40;;
14817;SDS011;7500;57.698;11.986;2022-09-24T05:02:59;2.93;;;2.30;;
14817;SDS011;7500;57.698;11.986;2022-09-24T05:05:28;4.00;;;2.40;;
14817;SDS011;7500;57.698;11.986;2022-09-24T05:07:56;2.33;;;2.17;;
14817;SDS011;7500;57.698;11.986;2022-09-24T05:10:30;2.83;;;2.50;;
14817;SDS011;7500;57.698;11.986;2022-09-24T05:12:58;4.70;;;2.43;;
14817;SDS011;7500;57.698;11.986;2022-09-24T05:15:26;2.87;;;2.33;;
14817;SDS011;7500;57.698;11.986;2022-09-24T05:17:53;2.50;;;2.13;;
14817;SDS011;7500;57.698;11.986;2022-09-24T05:20:21;4.03;;;2.40;;
14817;SDS011;7500;57.698;11.986;2022-09-24T05:22:54;4.53;;;2.50;;
14817;SDS011;7500;57.698;11.986;2022-09-24T05:25:28;2.70;;;2.50;;
14817;SDS011;7500;57.698;11.986;2022-09-24T05:27:54;3.13;;;2.83;;
14817;SDS011;7500;57.698;11.986;2022-09-24T05:30:21;4.30;;;2.77;;
14817;SDS011;7500;57.698;11.986;2022-09-24T05:32:50;3.63;;;2.33;;
14817;SDS011;7500;57.698;11.986;2022-09-24T05:35:17;5.67;;;2.70;;
14817;SDS011;7500;57.698;11.986;2022-09-24T05:37:45;2.77;;;2.30;;
14817;SDS011;7500;57.698;11.986;2022-09-24T05:40:13;5.30;;;2.90;;
14817;SDS011;7500;57.698;11.986;2022-09-24T05:42:58;2.57;;;2.27;;
14817;SDS011;7500;57.698;11.986;2022-09-24T05:45:26;3.53;;;2.30;;
14817;SDS011;7500;57.698;11.986;2022-09-24T05:47:53;4.27;;;2.40;;
14817;SDS011;7500;57.698;11.986;2022-09-24T05:50:20;3.97;;;2.70;;
14817;SDS011;7500;57.698;11.986;2022-09-24T05:52:48;3.43;;;2.40;;
14817;SDS011;7500;57.698;11.986;2022-09-24T05:55:15;2.73;;;2.53;;
14817;SDS011;7500;57.698;11.986;2022-09-24T05:57:42;3.93;;;2.70;;
14817;SDS011;7500;57.698;11.986;2022-09-24T06:00:09;2.83;;;2.10;;
14817;SDS011;7500;57.698;11.986;2022-09-24T06:02:37;3.87;;;2.50;;
14817;SDS011;7500;57.698;11.986;2022-09-24T06:05:04;2.43;;;2.10;;
14817;SDS011;7500;57.698;11.986;2022-09-24T06:07:32;4.13;;;2.50;;
14817;SDS011;7500;57.698;11.986;2022-09-24T06:10:00;3.47;;;2.40;;
14817;SDS011;7500;57.698;11.986;2022-09-24T06:12:27;3.17;;;2.27;;
14817;SDS011;7500;57.698;11.986;2022-09-24T06:14:54;3.93;;;3.23;;
14817;SDS011;7500;57.698;11.986;2022-09-24T06:17:20;5.00;;;2.80;;
14817;SDS011;7500;57.698;11.986;2022-09-24T06:19:47;3.17;;;2.70;;
14817;SDS011;7500;57.698;11.986;2022-09-24T06:22:14;3.90;;;2.90;;
14817;SDS011;7500;57.698;11.986;2022-09-24T06:24:41;3.80;;;2.93;;
14817;SDS011;7500;57.698;11.986;2022-09-24T06:27:09;3.73;;;2.70;;
14817;SDS011;7500;57.698;11.986;2022-09-24T06:29:36;2.70;;;2.50;;
14817;SDS011;7500;57.698;11.986;2022-09-24T06:32:03;3.10;;;2.80;;
14817;SDS011;7500;57.698;11.986;2022-09-24T06:34:30;2.60;;;2.40;;
14817;SDS011;7500;57.698;11.986;2022-09-24T06:36:57;3.60;;;3.00;;
14817;SDS011;7500;57.698;11.986;2022-09-24T06:39:24;3.13;;;2.83;;
14817;SDS011;7500;57.698;11.986;2022-09-24T06:41:51;4.37;;;2.80;;
14817;SDS011;7500;57.698;11.986;2022-09-24T06:44:20;4.33;;;2.73;;
14817;SDS011;7500;57.698;11.986;2022-09-24T06:46:47;3.63;;;2.70;;
14817;SDS011;7500;57.698;11.986;2022-09-24T06:49:13;6.73;;;2.93;;
14817;SDS011;7500;57.698;11.986;2022-09-24T06:51:46;5.43;;;2.93;;
14817;SDS011;7500;57.698;11.986;2022-09-24T06:54:13;10.77;;;3.40;;
14817;SDS011;7500;57.698;11.986;2022-09-24T06:56:40;6.20;;;3.00;;
14817;SDS011;7500;57.698;11.986;2022-09-24T06:59:07;6.17;;;3.40;;
14817;SDS011;7500;57.698;11.986;2022-09-24T07:01:35;5.47;;;2.87;;
14817;SDS011;7500;57.698;11.986;2022-09-24T07:04:02;7.30;;;3.37;;
14817;SDS011;7500;57.698;11.986;2022-09-24T07:06:29;10.73;;;3.83;;
14817;SDS011;7500;57.698;11.986;2022-09-24T07:09:16;4.53;;;3.50;;
14817;SDS011;7500;57.698;11.986;2022-09-24T07:11:43;7.27;;;4.57;;
14817;SDS011;7500;57.698;11.986;2022-09-24T07:14:10;6.63;;;4.50;;
14817;SDS011;7500;57.698;11.986;2022-09-24T07:16:39;4.73;;;4.27;;
14817;SDS011;7500;57.698;11.986;2022-09-24T07:19:05;6.77;;;5.20;;
14817;SDS011;7500;57.698;11.986;2022-09-24T07:21:32;5.80;;;5.20;;
14817;SDS011;7500;57.698;11.986;2022-09-24T07:23:59;7.37;;;5.10;;
14817;SDS011;7500;57.698;11.986;2022-09-24T07:26:27;6.20;;;5.60;;
14817;SDS011;7500;57.698;11.986;2022-09-24T07:28:54;7.17;;;5.73;;
14817;SDS011;7500;57.698;11.986;2022-09-24T07:31:21;7.03;;;5.40;;
14817;SDS011;7500;57.698;11.986;2022-09-24T07:33:50;9.17;;;6.13;;
14817;SDS011;7500;57.698;11.986;2022-09-24T07:36:17;7.57;;;6.43;;
14817;SDS011;7500;57.698;11.986;2022-09-24T07:38:44;5.57;;;5.00;;
14817;SDS011;7500;57.698;11.986;2022-09-24T07:41:11;6.77;;;6.17;;
14817;SDS011;7500;57.698;11.986;2022-09-24T07:43:37;7.87;;;6.60;;
14817;SDS011;7500;57.698;11.986;2022-09-24T07:46:05;7.80;;;6.30;;
14817;SDS011;7500;57.698;11.986;2022-09-24T07:48:32;7.03;;;6.33;;
14817;SDS011;7500;57.698;11.986;2022-09-24T07:51:00;7.17;;;6.47;;
14817;SDS011;7500;57.698;11.986;2022-09-24T07:53:27;6.83;;;6.20;;
14817;SDS011;7500;57.698;11.986;2022-09-24T07:55:57;7.87;;;6.30;;
14817;SDS011;7500;57.698;11.986;2022-09-24T07:58:24;8.50;;;5.27;;
14817;SDS011;7500;57.698;11.986;2022-09-24T08:00:51;7.67;;;6.00;;
14817;SDS011;7500;57.698;11.986;2022-09-24T08:03:18;6.80;;;5.90;;
14817;SDS011;7500;57.698;11.986;2022-09-24T08:05:45;6.03;;;5.27;;
14817;SDS011;7500;57.698;11.986;2022-09-24T08:08:13;9.27;;;5.47;;
14817;SDS011;7500;57.698;11.986;2022-09-24T08:10:40;6.00;;;5.40;;
14817;SDS011;7500;57.698;11.986;2022-09-24T08:13:07;5.43;;;4.93;;
14817;SDS011;7500;57.698;11.986;2022-09-24T08:15:35;6.73;;;4.90;;
14817;SDS011;7500;57.698;11.986;2022-09-24T08:18:01;6.47;;;4.87;;
14817;SDS011;7500;57.698;11.986;2022-09-24T08:20:29;9.00;;;5.17;;
14817;SDS011;7500;57.698;11.986;2022-09-24T08:22:59;4.70;;;4.30;;
14817;SDS011;7500;57.698;11.986;2022-09-24T08:25:27;7.93;;;4.43;;
14817;SDS011;7500;57.698;11.986;2022-09-24T08:27:55;5.37;;;4.90;;
14817;SDS011;7500;57.698;11.986;2022-09-24T08:30:26;5.00;;;4.50;;
14817;SDS011;7500;57.698;11.986;2022-09-24T08:32:53;5.67;;;4.50;;
14817;SDS011;7500;57.698;11.986;2022-09-24T08:35:20;5.20;;;4.40;;
14817;SDS011;7500;57.698;11.986;2022-09-24T08:37:47;5.67;;;4.50;;
14817;SDS011;7500;57.698;11.986;2022-09-24T08:40:14;7.03;;;4.17;;
14817;SDS011;7500;57.698;11.986;2022-09-24T08:42:46;5.67;;;4.13;;
14817;SDS011;7500;57.698;11.986;2022-09-24T08:45:20;5.10;;;4.50;;
14817;SDS011;7500;57.698;11.986;2022-09-24T08:48:07;3.83;;;3.53;;
14817;SDS011;7500;57.698;11.986;2022-09-24T08:50:39;4.93;;;4.40;;
14817;SDS011;7500;57.698;11.986;2022-09-24T08:53:15;4.97;;;3.63;;
14817;SDS011;7500;57.698;11.986;2022-09-24T08:55:48;4.60;;;4.20;;
14817;SDS011;7500;57.698;11.986;2022-09-24T08:58:27;4.57;;;3.90;;
14817;SDS011;7500;57.698;11.986;2022-09-24T09:01:04;4.47;;;3.80;;
14817;SDS011;7500;57.698;11.986;2022-09-24T09:03:40;4.70;;;3.90;;
14817;SDS011;7500;57.698;11.986;2022-09-24T09:06:12;4.50;;;4.10;;
14817;SDS011;7500;57.698;11.986;2022-09-24T09:08:52;5.97;;;3.70;;
14817;SDS011;7500;57.698;11.986;2022-09-24T09:11:30;6.10;;;3.57;;
14817;SDS011;7500;57.698;11.986;2022-09-24T09:14:02;4.40;;;3.70;;
14817;SDS011;7500;57.698;11.986;2022-09-24T09:16:38;5.03;;;3.80;;
14817;SDS011;7500;57.698;11.986;2022-09-24T09:19:12;5.03;;;3.67;;
14817;SDS011;7500;57.698;11.986;2022-09-24T09:21:41;8.77;;;3.43;;
14817;SDS011;7500;57.698;11.986;2022-09-24T09:24:13;5.10;;;4.00;;
14817;SDS011;7500;57.698;11.986;2022-09-24T09:26:43;4.13;;;3.73;;
14817;SDS011;7500;57.698;11.986;2022-09-24T09:29:15;7.07;;;3.67;;
14817;SDS011;7500;57.698;11.986;2022-09-24T09:31:44;6.23;;;3.90;;
14817;SDS011;7500;57.698;11.986;2022-09-24T09:34:34;8.43;;;3.83;;
14817;SDS011;7500;57.698;11.986;2022-09-24T09:37:13;6.13;;;4.00;;
14817;SDS011;7500;57.698;11.986;2022-09-24T09:39:51;5.07;;;3.90;;
14817;SDS011;7500;57.698;11.986;2022-09-24T09:42:25;6.90;;;4.03;;
14817;SDS011;7500;57.698;11.986;2022-09-24T09:44:58;4.60;;;4.20;;
14817;SDS011;7500;57.698;11.986;2022-09-24T09:47:30;4.60;;;4.00;;
14817;SDS011;7500;57.698;11.986;2022-09-24T09:50:09;4.50;;;4.10;;
14817;SDS011;7500;57.698;11.986;2022-09-24T09:52:44;5.37;;;4.20;;
14817;SDS011;7500;57.698;11.986;2022-09-24T09:55:19;6.00;;;4.00;;
14817;SDS011;7500;57.698;11.986;2022-09-24T09:57:47;5.10;;;4.13;;
14817;SDS011;7500;57.698;11.986;2022-09-24T10:00:23;5.00;;;4.00;;
14817;SDS011;7500;57.698;11.986;2022-09-24T10:02:52;5.23;;;4.13;;
14817;SDS011;7500;57.698;11.986;2022-09-24T10:05:20;5.10;;;4.60;;
14817;SDS011;7500;57.698;11.986;2022-09-24T10:07:52;4.97;;;4.30;;
14817;SDS011;7500;57.698;11.986;2022-09-24T10:10:20;6.27;;;4.63;;
14817;SDS011;7500;57.698;11.986;2022-09-24T10:12:49;5.30;;;4.80;;
14817;SDS011;7500;57.698;11.986;2022-09-24T10:15:19;6.70;;;4.90;;
14817;SDS011;7500;57.698;11.986;2022-09-24T10:17:50;7.77;;;5.47;;
14817;SDS011;7500;57.698;11.986;2022-09-24T10:20:21;7.33;;;5.60;;
14817;SDS011;7500;57.698;11.986;2022-09-24T10:22:52;6.50;;;5.80;;
14817;SDS011;7500;57.698;11.986;2022-09-24T10:25:22;8.00;;;5.70;;
14817;SDS011;7500;57.698;11.986;2022-09-24T10:27:51;9.10;;;6.13;;
14817;SDS011;7500;57.698;11.986;2022-09-24T10:30:47;8.80;;;5.87;;
14817;SDS011;7500;57.698;11.986;2022-09-24T10:33:17;7.60;;;6.20;;
14817;SDS011;7500;57.698;11.986;2022-09-24T10:35:44;6.93;;;5.83;;
14817;SDS011;7500;57.698;11.986;2022-09-24T10:38:14;9.63;;;6.50;;
14817;SDS011;7500;57.698;11.986;2022-09-24T10:40:44;6.30;;;5.70;;
14817;SDS011;7500;57.698;11.986;2022-09-24T10:43:14;7.23;;;6.50;;
14817;SDS011;7500;57.698;11.986;2022-09-24T10:48:36;7.90;;;5.80;;
14817;SDS011;7500;57.698;11.986;2022-09-24T10:51:12;10.93;;;5.70;;
14817;SDS011;7500;57.698;11.986;2022-09-24T10:53:51;6.00;;;5.40;;
14817;SDS011;7500;57.698;11.986;2022-09-24T10:56:28;8.07;;;6.10;;
14817;SDS011;7500;57.698;11.986;2022-09-24T10:59:08;7.27;;;5.00;;
14817;SDS011;7500;57.698;11.986;2022-09-24T11:01:54;7.67;;;5.33;;
14817;SDS011;7500;57.698;11.986;2022-09-24T11:04:46;6.83;;;5.30;;
14817;SDS011;7500;57.698;11.986;2022-09-24T11:07:23;6.33;;;4.60;;
14817;SDS011;7500;57.698;11.986;2022-09-24T11:10:02;7.80;;;5.40;;
14817;SDS011;7500;57.698;11.986;2022-09-24T11:12:38;6.67;;;5.37;;
14817;SDS011;7500;57.698;11.986;2022-09-24T11:15:20;7.93;;;5.30;;
14817;SDS011;7500;57.698;11.986;2022-09-24T11:18:03;7.27;;;5.50;;
14817;SDS011;7500;57.698;11.986;2022-09-24T11:20:40;7.37;;;5.63;;
14817;SDS011;7500;57.698;11.986;2022-09-24T11:26:06;6.37;;;5.50;;
14817;SDS011;7500;57.698;11.986;2022-09-24T11:28:48;6.87;;;6.13;;
14817;SDS011;7500;57.698;11.986;2022-09-24T11:31:29;8.17;;;5.97;;
14817;SDS011;7500;57.698;11.986;2022-09-24T11:34:05;7.30;;;6.60;;
14817;SDS011;7500;57.698;11.986;2022-09-24T11:36:45;8.37;;;7.23;;
14817;SDS011;7500;57.698;11.986;2022-09-24T11:39:31;10.83;;;9.07;;
14817;SDS011;7500;57.698;11.986;2022-09-24T11:42:11;9.77;;;7.60;;
14817;SDS011;7500;57.698;11.986;2022-09-24T11:44:56;9.03;;;7.13;;
14817;SDS011;7500;57.698;11.986;2022-09-24T11:47:44;8.67;;;7.10;;
14817;SDS011;7500;57.698;11.986;2022-09-24T11:50:23;7.90;;;6.80;;
14817;SDS011;7500;57.698;11.986;2022-09-24T11:53:00;8.97;;;6.80;;
14817;SDS011;7500;57.698;11.986;2022-09-24T11:55:32;7.23;;;6.57;;
14817;SDS011;7500;57.698;11.986;2022-09-24T11:58:04;7.93;;;7.13;;
14817;SDS011;7500;57.698;11.986;2022-09-24T12:00:40;7.73;;;6.80;;
14817;SDS011;7500;57.698;11.986;2022-09-24T12:03:11;7.50;;;6.80;;
14817;SDS011;7500;57.698;11.986;2022-09-24T12:05:44;10.23;;;6.63;;
14817;SDS011;7500;57.698;11.986;2022-09-24T12:08:16;7.60;;;6.90;;
14817;SDS011;7500;57.698;11.986;2022-09-24T12:10:53;6.97;;;6.17;;
14817;SDS011;7500;57.698;11.986;2022-09-24T12:13:26;7.63;;;6.17;;
14817;SDS011;7500;57.698;11.986;2022-09-24T12:15:57;9.30;;;5.67;;
14817;SDS011;7500;57.698;11.986;2022-09-24T12:18:28;8.50;;;6.47;;
14817;SDS011;7500;57.698;11.986;2022-09-24T12:21:01;8.73;;;6.97;;
14817;SDS011;7500;57.698;11.986;2022-09-24T12:23:36;8.23;;;5.90;;
14817;SDS011;7500;57.698;11.986;2022-09-24T12:26:05;10.00;;;6.60;;
14817;SDS011;7500;57.698;11.986;2022-09-24T12:28:34;7.05;;;6.35;;
14817;SDS011;7500;57.698;11.986;2022-09-24T12:31:25;11.47;;;5.77;;
14817;SDS011;7500;57.698;11.986;2022-09-24T12:34:15;7.63;;;6.17;;
14817;SDS011;7500;57.698;11.986;2022-09-24T12:36:52;12.50;;;7.07;;
14817;SDS011;7500;57.698;11.986;2022-09-24T12:39:27;7.97;;;6.50;;
14817;SDS011;7500;57.698;11.986;2022-09-24T12:41:58;7.37;;;6.67;;
14817;SDS011;7500;57.698;11.986;2022-09-24T12:44:34;8.77;;;6.43;;
14817;SDS011;7500;57.698;11.986;2022-09-24T12:47:10;7.73;;;6.73;;
14817;SDS011;7500;57.698;11.986;2022-09-24T12:49:42;9.43;;;7.00;;
14817;SDS011;7500;57.698;11.986;2022-09-24T12:52:17;7.93;;;7.13;;
14817;SDS011;7500;57.698;11.986;2022-09-24T12:54:54;7.53;;;6.70;;
14817;SDS011;7500;57.698;11.986;2022-09-24T12:57:25;8.93;;;6.50;;
14817;SDS011;7500;57.698;11.986;2022-09-24T12:59:55;7.63;;;6.70;;
14817;SDS011;7500;57.698;11.986;2022-09-24T13:02:24;7.50;;;6.60;;
14817;SDS011;7500;57.698;11.986;2022-09-24T13:07:56;6.30;;;5.70;;
14817;SDS011;7500;57.698;11.986;2022-09-24T13:10:27;8.20;;;6.33;;
14817;SDS011;7500;57.698;11.986;2022-09-24T13:13:01;10.03;;;5.63;;
14817;SDS011;7500;57.698;11.986;2022-09-24T13:15:42;6.87;;;6.10;;
14817;SDS011;7500;57.698;11.986;2022-09-24T13:18:17;6.50;;;5.90;;
14817;SDS011;7500;57.698;11.986;2022-09-24T13:20:55;8.80;;;6.40;;
14817;SDS011;7500;57.698;11.986;2022-09-24T13:23:29;7.07;;;6.10;;
14817;SDS011;7500;57.698;11.986;2022-09-24T13:26:01;8.13;;;6.40;;
14817;SDS011;7500;57.698;11.986;2022-09-24T13:28:30;8.70;;;6.73;;
14817;SDS011;7500;57.698;11.986;2022-09-24T13:31:01;6.23;;;5.63;;
14817;SDS011;7500;57.698;11.986;2022-09-24T13:33:35;6.67;;;5.67;;
14817;SDS011;7500;57.698;11.986;2022-09-24T13:36:10;6.03;;;5.50;;
14817;SDS011;7500;57.698;11.986;2022-09-24T13:38:42;7.40;;;6.10;;
14817;SDS011;7500;57.698;11.986;2022-09-24T13:41:28;7.40;;;5.90;;
14817;SDS011;7500;57.698;11.986;2022-09-24T13:44:03;7.60;;;5.87;;
14817;SDS011;7500;57.698;11.986;2022-09-24T13:46:38;6.53;;;5.90;;
14817;SDS011;7500;57.698;11.986;2022-09-24T13:49:10;6.17;;;5.57;;
14817;SDS011;7500;57.698;11.986;2022-09-24T13:51:41;6.90;;;5.77;;
14817;SDS011;7500;57.698;11.986;2022-09-24T13:54:13;6.40;;;5.40;;
14817;SDS011;7500;57.698;11.986;2022-09-24T13:56:57;7.10;;;5.40;;
14817;SDS011;7500;57.698;11.986;2022-09-24T13:59:27;6.13;;;5.63;;
14817;SDS011;7500;57.698;11.986;2022-09-24T14:01:55;6.30;;;5.57;;
14817;SDS011;7500;57.698;11.986;2022-09-24T14:04:22;6.27;;;5.30;;
14817;SDS011;7500;57.698;11.986;2022-09-24T14:06:49;7.37;;;5.43;;
14817;SDS011;7500;57.698;11.986;2022-09-24T14:09:25;8.77;;;5.50;;
14817;SDS011;7500;57.698;11.986;2022-09-24T14:11:55;5.90;;;5.40;;
14817;SDS011;7500;57.698;11.986;2022-09-24T14:14:27;5.33;;;4.83;;
14817;SDS011;7500;57.698;11.986;2022-09-24T14:17:04;6.03;;;5.13;;
14817;SDS011;7500;57.698;11.986;2022-09-24T14:19:32;6.87;;;5.07;;
14817;SDS011;7500;57.698;11.986;2022-09-24T14:22:00;6.57;;;4.93;;
14817;SDS011;7500;57.698;11.986;2022-09-24T14:24:29;7.80;;;5.03;;
14817;SDS011;7500;57.698;11.986;2022-09-24T14:27:01;7.63;;;4.80;;
14817;SDS011;7500;57.698;11.986;2022-09-24T14:29:32;6.80;;;5.47;;
14817;SDS011;7500;57.698;11.986;2022-09-24T14:32:04;10.10;;;5.63;;
14817;SDS011;7500;57.698;11.986;2022-09-24T14:34:33;5.90;;;5.30;;
14817;SDS011;7500;57.698;11.986;2022-09-24T14:37:06;5.90;;;4.77;;
14817;SDS011;7500;57.698;11.986;2022-09-24T14:39:36;6.47;;;4.73;;
14817;SDS011;7500;57.698;11.986;2022-09-24T14:42:09;5.53;;;5.03;;
14817;SDS011;7500;57.698;11.986;2022-09-24T14:44:43;7.07;;;5.53;;
14817;SDS011;7500;57.698;11.986;2022-09-24T14:47:23;7.47;;;5.47;;
14817;SDS011;7500;57.698;11.986;2022-09-24T14:49:51;7.00;;;5.00;;
14817;SDS011;7500;57.698;11.986;2022-09-24T14:52:26;7.63;;;5.27;;
14817;SDS011;7500;57.698;11.986;2022-09-24T14:55:14;6.90;;;4.80;;
14817;SDS011;7500;57.698;11.986;2022-09-24T14:57:44;8.37;;;4.63;;
14817;SDS011;7500;57.698;11.986;2022-09-24T15:00:19;8.13;;;4.60;;
14817;SDS011;7500;57.698;11.986;2022-09-24T15:02:49;5.73;;;5.17;;
14817;SDS011;7500;57.698;11.986;2022-09-24T15:05:21;7.00;;;4.27;;
14817;SDS011;7500;57.698;11.986;2022-09-24T15:07:49;6.60;;;4.57;;
14817;SDS011;7500;57.698;11.986;2022-09-24T15:10:35;5.30;;;4.80;;
14817;SDS011;7500;57.698;11.986;2022-09-24T15:13:12;5.57;;;4.77;;
14817;SDS011;7500;57.698;11.986;2022-09-24T15:15:40;5.93;;;4.77;;
14817;SDS011;7500;57.698;11.986;2022-09-24T15:18:16;5.63;;;4.60;;
14817;SDS011;7500;57.698;11.986;2022-09-24T15:20:43;8.33;;;5.70;;